createdAt,value
2019-03-15T00:01:44.955Z,22.13
2019-03-15T00:04:13.626Z,20.40
2019-03-15T00:06:42.294Z,19.87
2019-03-15T00:09:10.980Z,19.93
2019-03-15T00:11:39.637Z,20.70
2019-03-15T00:14:08.325Z,19.50
2019-03-15T00:16:36.997Z,18.50
2019-03-15T00:19:05.676Z,19.63
2019-03-15T00:21:34.354Z,20.83
2019-03-15T00:24:03.029Z,21.27
2019-03-15T00:26:31.897Z,21.50
2019-03-15T00:29:00.584Z,20.03
2019-03-15T00:31:29.261Z,20.83
2019-03-15T00:33:57.989Z,20.00
2019-03-15T00:36:26.660Z,20.50
2019-03-15T00:38:55.376Z,20.23
2019-03-15T00:41:24.050Z,19.40
2019-03-15T00:43:52.709Z,19.03
2019-03-15T00:46:21.675Z,18.90
2019-03-15T00:48:50.347Z,18.57
2019-03-15T00:51:19.083Z,19.60
2019-03-15T00:53:47.765Z,20.10
2019-03-15T00:56:16.437Z,19.63
2019-03-15T00:58:45.114Z,19.83
2019-03-15T01:01:13.782Z,21.40
2019-03-15T01:03:42.452Z,20.30
2019-03-15T01:06:11.125Z,20.13
2019-03-15T01:08:39.805Z,20.13
2019-03-15T01:11:08.488Z,20.37
2019-03-15T01:13:37.251Z,19.67
2019-03-15T01:16:05.927Z,21.90
2019-03-15T01:18:34.578Z,21.00
2019-03-15T01:21:03.239Z,22.40
2019-03-15T01:23:31.906Z,23.20
2019-03-15T01:26:00.584Z,21.40
2019-03-15T01:28:29.251Z,21.17
2019-03-15T01:30:57.942Z,20.80
2019-03-15T01:33:26.580Z,19.07
2019-03-15T01:35:55.259Z,20.23
2019-03-15T01:38:23.932Z,21.07
2019-03-15T01:40:52.612Z,20.20
2019-03-15T01:43:21.280Z,20.23
2019-03-15T01:45:49.942Z,20.53
2019-03-15T01:48:18.632Z,21.47
2019-03-15T01:50:47.296Z,19.73
2019-03-15T01:53:15.962Z,19.67
2019-03-15T01:55:44.640Z,20.83
2019-03-15T01:58:13.328Z,20.73
2019-03-15T02:00:42.095Z,18.73
2019-03-15T02:03:10.776Z,18.87
2019-03-15T02:05:39.445Z,19.50
2019-03-15T02:08:08.124Z,19.20
2019-03-15T02:10:37.443Z,19.63
2019-03-15T02:13:06.464Z,18.37
2019-03-15T02:15:35.142Z,19.50
2019-03-15T02:18:03.825Z,18.83
2019-03-15T02:20:32.501Z,18.73
2019-03-15T02:23:01.205Z,17.50
2019-03-15T02:25:29.886Z,16.93
2019-03-15T02:27:58.567Z,17.00
2019-03-15T02:30:27.229Z,16.73
2019-03-15T02:32:55.920Z,16.50
2019-03-15T02:35:24.597Z,16.03
2019-03-15T02:37:53.262Z,15.67
2019-03-15T02:40:21.938Z,16.03
2019-03-15T02:42:50.739Z,15.70
2019-03-15T02:45:19.464Z,15.23
2019-03-15T02:47:48.171Z,15.13
2019-03-15T02:50:16.855Z,15.80
2019-03-15T02:52:45.562Z,16.13
2019-03-15T02:55:14.228Z,16.40
2019-03-15T02:57:42.896Z,15.70
2019-03-15T03:00:11.571Z,15.63
2019-03-15T03:02:40.250Z,14.73
2019-03-15T03:05:10.696Z,15.80
2019-03-15T03:07:39.788Z,16.80
2019-03-15T03:10:09.252Z,16.47
2019-03-15T03:12:38.143Z,15.97
2019-03-15T03:15:07.813Z,19.80
2019-03-15T03:17:36.476Z,19.23
2019-03-15T03:20:06.644Z,19.83
2019-03-15T03:22:36.353Z,20.37
2019-03-15T03:25:06.607Z,21.10
2019-03-15T03:27:35.294Z,21.03
2019-03-15T03:30:04.664Z,23.17
2019-03-15T03:32:33.365Z,23.87
2019-03-15T03:35:02.183Z,25.23
2019-03-15T03:37:30.933Z,24.13
2019-03-15T03:40:01.526Z,25.00
2019-03-15T03:42:30.008Z,23.43
2019-03-15T03:44:58.718Z,24.53
2019-03-15T03:47:27.384Z,24.53
2019-03-15T03:49:56.069Z,23.53
2019-03-15T03:52:24.743Z,24.50
2019-03-15T03:54:53.425Z,23.60
2019-03-15T03:57:22.093Z,22.97
2019-03-15T03:59:50.776Z,23.23
2019-03-15T04:02:19.553Z,22.80
2019-03-15T04:04:48.629Z,26.43
2019-03-15T04:07:17.524Z,23.90
2019-03-15T04:09:46.234Z,24.97
2019-03-15T04:12:14.907Z,23.00
2019-03-15T04:14:43.813Z,23.80
2019-03-15T04:17:12.665Z,22.43
2019-03-15T04:19:41.326Z,19.13
2019-03-15T04:22:10.024Z,20.13
2019-03-15T04:24:38.888Z,19.93
2019-03-15T04:27:07.555Z,20.37
2019-03-15T04:29:36.228Z,19.37
2019-03-15T04:32:04.895Z,19.47
2019-03-15T04:34:33.576Z,20.57
2019-03-15T04:37:02.309Z,21.73
2019-03-15T04:39:30.976Z,22.10
2019-03-15T04:41:59.769Z,20.80
2019-03-15T04:44:28.447Z,21.33
2019-03-15T04:46:57.302Z,21.30
2019-03-15T04:49:25.976Z,21.57
2019-03-15T04:51:54.647Z,21.90
2019-03-15T04:54:23.344Z,23.33
2019-03-15T04:56:52.023Z,21.43
2019-03-15T04:59:23.878Z,25.67
2019-03-15T05:01:51.094Z,22.53
2019-03-15T05:04:19.790Z,21.57
2019-03-15T05:06:48.468Z,20.07
2019-03-15T05:09:17.208Z,17.17
2019-03-15T05:11:45.873Z,17.43
2019-03-15T05:14:14.535Z,16.00
2019-03-15T05:16:43.210Z,16.23
2019-03-15T05:19:11.933Z,16.67
2019-03-15T05:21:40.907Z,16.60
2019-03-15T05:24:09.640Z,16.80
2019-03-15T05:26:38.322Z,17.87
2019-03-15T05:29:06.997Z,17.17
2019-03-15T05:31:35.670Z,15.90
2019-03-15T05:34:04.403Z,16.33
2019-03-15T05:36:33.071Z,15.97
2019-03-15T05:39:01.743Z,15.57
2019-03-15T05:41:30.418Z,15.10
2019-03-15T05:43:59.103Z,14.57
2019-03-15T05:46:27.773Z,15.10
2019-03-15T05:48:56.445Z,14.00
2019-03-15T05:51:25.269Z,13.77
2019-03-15T05:53:53.965Z,14.10
2019-03-15T05:56:22.633Z,15.27
2019-03-15T05:58:51.322Z,15.83
2019-03-15T06:01:20.272Z,16.13
2019-03-15T06:03:49.459Z,16.60
2019-03-15T06:06:18.398Z,16.30
2019-03-15T06:08:47.067Z,16.17
2019-03-15T06:11:15.834Z,15.30
2019-03-15T06:13:44.503Z,15.47
2019-03-15T06:16:13.176Z,16.37
2019-03-15T06:18:41.862Z,16.30
2019-03-15T06:21:10.531Z,16.03
2019-03-15T06:23:39.227Z,16.10
2019-03-15T06:26:07.877Z,17.47
2019-03-15T06:28:36.547Z,16.80
2019-03-15T06:31:05.217Z,16.73
2019-03-15T06:33:33.994Z,16.83
2019-03-15T06:36:02.710Z,18.50
2019-03-15T06:38:33.504Z,17.73
2019-03-15T06:41:01.801Z,18.63
2019-03-15T06:43:30.819Z,17.20
2019-03-15T06:45:59.918Z,18.07
2019-03-15T06:48:28.598Z,19.23
2019-03-15T06:50:57.308Z,19.23
2019-03-15T06:53:26.923Z,17.53
2019-03-15T06:55:55.648Z,17.33
2019-03-15T06:58:24.362Z,19.13
2019-03-15T07:00:54.717Z,22.47
2019-03-15T07:03:23.406Z,18.17
2019-03-15T07:05:52.088Z,19.10
2019-03-15T07:08:20.914Z,19.67
2019-03-15T07:10:49.792Z,24.13
2019-03-15T07:13:18.653Z,18.93
2019-03-15T07:15:47.738Z,20.13
2019-03-15T07:18:18.703Z,19.27
2019-03-15T07:20:48.015Z,18.60
2019-03-15T07:23:16.700Z,18.83
2019-03-15T07:25:45.463Z,18.90
2019-03-15T07:28:14.412Z,17.43
2019-03-15T07:30:43.059Z,17.43
2019-03-15T07:33:11.778Z,17.33
2019-03-15T07:35:40.497Z,17.80
2019-03-15T07:38:09.355Z,18.67
2019-03-15T07:40:38.001Z,16.00
2019-03-15T07:43:06.692Z,17.70
2019-03-15T07:45:35.383Z,16.07
2019-03-15T07:48:04.397Z,16.80
2019-03-15T07:50:33.081Z,16.17
2019-03-15T07:53:01.981Z,17.47
2019-03-15T07:55:30.745Z,16.57
2019-03-15T07:57:59.644Z,16.20
2019-03-15T08:00:28.382Z,16.03
2019-03-15T08:02:57.063Z,17.47
2019-03-15T08:05:25.877Z,15.53
2019-03-15T08:07:54.546Z,15.43
2019-03-15T08:10:23.226Z,15.77
2019-03-15T08:12:52.153Z,15.97
2019-03-15T08:15:20.807Z,19.47
2019-03-15T08:17:49.507Z,20.43
2019-03-15T08:20:18.206Z,18.80
2019-03-15T08:22:46.870Z,18.33
2019-03-15T08:25:15.837Z,18.47
2019-03-15T08:27:44.536Z,19.70
2019-03-15T08:30:15.480Z,19.60
2019-03-15T08:32:44.379Z,20.47
2019-03-15T08:35:13.766Z,18.67
2019-03-15T08:37:42.781Z,20.67
2019-03-15T08:40:13.678Z,18.33
2019-03-15T08:42:42.491Z,18.03
2019-03-15T08:45:18.886Z,14.90
2019-03-15T08:47:47.767Z,14.97
2019-03-15T08:50:17.984Z,18.07
2019-03-15T08:52:46.690Z,18.10
2019-03-15T08:55:15.827Z,19.37
2019-03-15T08:57:44.567Z,16.23
2019-03-15T09:00:14.763Z,19.13
2019-03-15T09:02:43.582Z,14.57
2019-03-15T09:05:13.741Z,16.47
2019-03-15T09:07:42.534Z,14.90
2019-03-15T09:10:23.831Z,13.30
2019-03-15T09:12:49.623Z,13.40
2019-03-15T09:15:18.340Z,16.03
2019-03-15T09:17:47.187Z,14.53
2019-03-15T09:20:16.487Z,12.70
2019-03-15T09:22:45.562Z,13.87
2019-03-15T09:25:20.142Z,16.57
2019-03-15T09:27:49.344Z,15.83
2019-03-15T09:30:23.812Z,16.63
2019-03-15T09:32:49.174Z,14.87
2019-03-15T09:35:18.063Z,11.57
2019-03-15T09:37:47.859Z,10.63
2019-03-15T09:40:17.047Z,9.97
2019-03-15T09:42:47.536Z,10.20
2019-03-15T09:45:18.378Z,10.50
2019-03-15T09:47:47.472Z,11.43
2019-03-15T09:50:26.554Z,11.37
2019-03-15T09:52:47.704Z,12.10
2019-03-15T09:55:17.019Z,10.57
2019-03-15T09:57:45.712Z,9.67
2019-03-15T10:00:21.092Z,7.70
2019-03-15T10:02:49.981Z,8.10
2019-03-15T10:05:18.668Z,8.63
2019-03-15T10:07:47.389Z,7.70
2019-03-15T10:10:20.065Z,7.90
2019-03-15T10:12:48.788Z,10.20
2019-03-15T10:15:18.153Z,9.03
2019-03-15T10:17:46.840Z,7.07
2019-03-15T10:20:16.276Z,8.00
2019-03-15T10:22:45.135Z,6.23
2019-03-15T10:25:17.397Z,6.13
2019-03-15T10:27:46.228Z,6.57
2019-03-15T10:30:17.539Z,7.27
2019-03-15T10:32:46.731Z,8.47
2019-03-15T10:35:15.717Z,7.97
2019-03-15T10:37:44.395Z,8.63
2019-03-15T10:40:18.623Z,10.80
2019-03-15T10:42:47.284Z,6.43
2019-03-15T10:45:16.191Z,13.40
2019-03-15T10:47:44.864Z,7.70
2019-03-15T10:50:15.337Z,8.13
2019-03-15T10:52:44.027Z,7.00
2019-03-15T10:55:13.253Z,6.93
2019-03-15T10:57:42.226Z,8.73
2019-03-15T11:00:23.184Z,8.27
2019-03-15T11:02:52.006Z,9.53
2019-03-15T11:05:20.911Z,7.43
2019-03-15T11:07:49.952Z,7.50
2019-03-15T11:10:20.094Z,8.70
2019-03-15T11:12:48.769Z,9.00
2019-03-15T11:15:17.469Z,7.07
2019-03-15T11:17:46.207Z,6.00
2019-03-15T11:20:14.868Z,5.63
2019-03-15T11:22:43.560Z,5.80
2019-03-15T11:25:15.179Z,7.08
2019-03-15T11:27:43.851Z,6.87
2019-03-15T11:30:14.774Z,7.60
2019-03-15T11:32:43.448Z,7.72
2019-03-15T11:35:12.587Z,6.47
2019-03-15T11:37:41.337Z,5.60
2019-03-15T11:40:15.174Z,5.15
2019-03-15T11:42:44.436Z,7.12
2019-03-15T11:45:14.206Z,5.15
2019-03-15T11:48:01.925Z,6.22
2019-03-15T11:50:16.453Z,5.25
2019-03-15T11:52:45.111Z,11.68
2019-03-15T11:55:13.828Z,5.58
2019-03-15T11:57:42.644Z,4.22
2019-03-15T12:00:14.358Z,4.95
2019-03-15T12:02:43.076Z,4.70
2019-03-15T12:05:12.364Z,5.00
2019-03-15T12:07:40.979Z,4.70
2019-03-15T12:10:12.375Z,4.90
2019-03-15T12:12:41.102Z,4.73
2019-03-15T12:15:14.593Z,4.33
2019-03-15T12:17:43.326Z,5.40
2019-03-15T12:20:12.889Z,5.10
2019-03-15T12:22:41.625Z,4.80
2019-03-15T12:25:11.002Z,5.53
2019-03-15T12:27:39.789Z,4.23
2019-03-15T12:30:16.370Z,5.63
2019-03-15T12:32:45.042Z,5.07
2019-03-15T12:35:14.958Z,4.53
2019-03-15T12:37:43.786Z,5.10
2019-03-15T12:40:14.539Z,4.73
2019-03-15T12:42:43.425Z,3.90
2019-03-15T12:45:13.094Z,4.23
2019-03-15T12:47:41.780Z,4.00
2019-03-15T12:50:11.655Z,3.70
2019-03-15T12:52:47.765Z,4.53
2019-03-15T12:55:12.187Z,4.03
2019-03-15T12:57:40.943Z,4.20
2019-03-15T13:00:18.464Z,3.83
2019-03-15T13:02:47.286Z,3.05
2019-03-15T13:05:15.973Z,3.45
2019-03-15T13:07:44.745Z,3.37
2019-03-15T13:10:17.837Z,4.27
2019-03-15T13:12:47.461Z,4.90
2019-03-15T13:15:19.846Z,3.90
2019-03-15T13:17:48.520Z,3.93
2019-03-15T13:20:18.039Z,3.70
2019-03-15T13:22:46.811Z,3.57
2019-03-15T13:25:15.484Z,3.60
2019-03-15T13:27:44.199Z,32.87
2019-03-15T13:30:14.140Z,3.87
2019-03-15T13:32:43.039Z,20.73
2019-03-15T13:35:12.475Z,5.10
2019-03-15T13:37:43.160Z,4.00
2019-03-15T13:40:16.412Z,2.97
2019-03-15T13:42:45.091Z,4.30
2019-03-15T13:45:14.874Z,4.43
2019-03-15T13:47:50.913Z,5.43
2019-03-15T13:50:21.106Z,4.20
2019-03-15T13:52:49.795Z,3.40
2019-03-15T13:55:22.085Z,4.03
2019-03-15T13:57:51.093Z,3.70
2019-03-15T14:00:20.677Z,3.73
2019-03-15T14:02:49.534Z,3.20
2019-03-15T14:05:18.232Z,3.30
2019-03-15T14:07:46.951Z,3.03
2019-03-15T14:10:17.822Z,3.37
2019-03-15T14:12:46.468Z,4.37
2019-03-15T14:15:20.208Z,3.27
2019-03-15T14:17:48.870Z,3.13
2019-03-15T14:20:17.586Z,2.93
2019-03-15T14:22:46.274Z,6.10
2019-03-15T14:25:17.553Z,3.10
2019-03-15T14:27:46.547Z,3.37
2019-03-15T14:30:15.963Z,3.77
2019-03-15T14:32:44.977Z,4.57
2019-03-15T14:35:13.841Z,3.57
2019-03-15T14:37:42.880Z,3.23
2019-03-15T14:40:12.341Z,3.43
2019-03-15T14:42:41.227Z,4.20
2019-03-15T14:45:16.455Z,3.10
2019-03-15T14:47:45.728Z,2.40
2019-03-15T14:50:15.401Z,2.47
2019-03-15T14:52:44.092Z,2.50
2019-03-15T14:55:17.239Z,1.90
2019-03-15T14:57:52.690Z,3.00
2019-03-15T15:00:21.363Z,2.97
2019-03-15T15:02:50.251Z,2.93
2019-03-15T15:05:18.921Z,2.93
2019-03-15T15:07:47.645Z,4.07
2019-03-15T15:10:19.629Z,4.73
2019-03-15T15:12:48.313Z,4.03
2019-03-15T15:15:21.436Z,4.10
2019-03-15T15:17:50.255Z,3.80
2019-03-15T15:20:19.122Z,3.97
2019-03-15T15:22:48.024Z,3.40
2019-03-15T15:25:17.580Z,3.57
2019-03-15T15:27:46.253Z,3.63
2019-03-15T15:30:15.895Z,4.07
2019-03-15T15:32:44.844Z,4.27
2019-03-15T15:35:14.436Z,3.60
2019-03-15T15:37:43.435Z,3.93
2019-03-15T15:40:18.653Z,5.10
2019-03-15T15:42:47.553Z,4.13
2019-03-15T15:45:16.310Z,3.93
2019-03-15T15:47:45.014Z,3.70
2019-03-15T15:50:15.777Z,3.80
2019-03-15T15:52:44.860Z,3.90
2019-03-15T15:55:15.571Z,3.73
2019-03-15T15:57:44.607Z,4.20
2019-03-15T16:00:14.670Z,4.00
2019-03-15T16:02:43.365Z,6.27
2019-03-15T16:05:12.474Z,4.20
2019-03-15T16:07:41.172Z,4.33
2019-03-15T16:10:12.813Z,4.77
2019-03-15T16:12:41.697Z,5.20
2019-03-15T16:15:18.130Z,4.47
2019-03-15T16:17:46.796Z,5.00
2019-03-15T16:20:15.597Z,4.80
2019-03-15T16:22:44.300Z,4.53
2019-03-15T16:25:13.606Z,4.37
2019-03-15T16:27:42.279Z,4.90
2019-03-15T16:30:15.796Z,4.87
2019-03-15T16:32:44.725Z,5.10
2019-03-15T16:35:14.709Z,5.27
2019-03-15T16:37:43.478Z,5.73
2019-03-15T16:40:13.957Z,5.40
2019-03-15T16:42:42.631Z,4.67
2019-03-15T16:45:29.282Z,5.57
2019-03-15T16:47:57.922Z,4.83
2019-03-15T16:50:26.592Z,5.90
2019-03-15T16:52:55.390Z,5.90
2019-03-15T16:55:24.052Z,5.50
2019-03-15T16:57:52.950Z,5.40
2019-03-15T17:00:21.627Z,5.53
2019-03-15T17:02:50.290Z,5.80
2019-03-15T17:05:18.983Z,5.70
2019-03-15T17:07:47.688Z,5.00
2019-03-15T17:10:17.892Z,5.67
2019-03-15T17:12:46.553Z,6.00
2019-03-15T17:15:25.690Z,6.17
2019-03-15T17:17:54.507Z,7.17
2019-03-15T17:20:23.208Z,6.03
2019-03-15T17:22:51.981Z,6.83
2019-03-15T17:25:20.653Z,6.50
2019-03-15T17:27:49.399Z,7.10
2019-03-15T17:30:18.592Z,6.70
2019-03-15T17:32:47.302Z,6.13
2019-03-15T17:35:20.719Z,6.10
2019-03-15T17:37:49.446Z,5.30
2019-03-15T17:40:21.924Z,5.00
2019-03-15T17:42:50.781Z,4.70
2019-03-15T17:45:19.505Z,5.23
2019-03-15T17:47:48.225Z,5.57
2019-03-15T17:50:25.073Z,4.33
2019-03-15T17:52:53.731Z,3.80
2019-03-15T17:55:22.617Z,4.20
2019-03-15T17:57:51.465Z,3.20
2019-03-15T18:00:27.264Z,2.13
2019-03-15T18:02:56.057Z,2.10
2019-03-15T18:05:24.823Z,2.03
2019-03-15T18:07:53.486Z,1.60
2019-03-15T18:10:22.478Z,1.60
2019-03-15T18:12:51.128Z,2.40
2019-03-15T18:15:19.798Z,2.80
2019-03-15T18:17:48.453Z,2.93
2019-03-15T18:20:17.125Z,2.80
2019-03-15T18:22:45.791Z,2.80
2019-03-15T18:25:15.134Z,2.87
2019-03-15T18:27:43.790Z,2.80
2019-03-15T18:30:16.978Z,3.00
2019-03-15T18:32:46.087Z,2.73
2019-03-15T18:35:15.151Z,2.90
2019-03-15T18:37:43.809Z,3.00
2019-03-15T18:40:21.800Z,2.70
2019-03-15T18:42:50.458Z,2.83
2019-03-15T18:45:19.554Z,2.93
2019-03-15T18:47:48.216Z,3.17
2019-03-15T18:50:19.505Z,3.00
2019-03-15T18:52:48.301Z,2.80
2019-03-15T18:55:17.180Z,3.20
2019-03-15T18:57:46.306Z,2.80
2019-03-15T19:00:17.074Z,3.30
2019-03-15T19:02:45.745Z,3.67
2019-03-15T19:05:14.666Z,3.00
2019-03-15T19:07:43.470Z,3.37
2019-03-15T19:10:15.704Z,2.80
2019-03-15T19:12:44.580Z,2.97
2019-03-15T19:15:15.194Z,3.13
2019-03-15T19:17:44.057Z,3.40
2019-03-15T19:20:17.162Z,2.83
2019-03-15T19:22:46.161Z,3.13
2019-03-15T19:25:15.790Z,3.30
2019-03-15T19:27:44.567Z,3.10
2019-03-15T19:30:18.136Z,3.20
2019-03-15T19:32:46.802Z,3.10
2019-03-15T19:35:15.449Z,2.60
2019-03-15T19:37:44.111Z,2.90
2019-03-15T19:40:17.811Z,3.17
2019-03-15T19:42:46.621Z,3.20
2019-03-15T19:45:16.066Z,3.70
2019-03-15T19:47:44.727Z,3.60
2019-03-15T19:50:15.262Z,3.40
2019-03-15T19:52:43.920Z,3.80
2019-03-15T19:55:13.894Z,3.90
2019-03-15T19:57:42.552Z,4.07
2019-03-15T20:00:22.377Z,3.67
2019-03-15T20:02:51.095Z,3.77
2019-03-15T20:05:19.746Z,3.93
2019-03-15T20:07:48.565Z,3.70
2019-03-15T20:10:17.602Z,3.47
2019-03-15T20:12:46.383Z,3.40
2019-03-15T20:15:16.731Z,3.93
2019-03-15T20:17:45.797Z,4.00
2019-03-15T20:20:17.384Z,3.93
2019-03-15T20:22:46.106Z,3.90
2019-03-15T20:25:15.795Z,3.77
2019-03-15T20:27:44.449Z,3.90
2019-03-15T20:30:21.195Z,4.10
2019-03-15T20:32:45.600Z,3.80
2019-03-15T20:35:14.489Z,3.53
2019-03-15T20:37:43.142Z,3.53
2019-03-15T20:40:15.622Z,3.60
2019-03-15T20:42:44.272Z,3.30
2019-03-15T20:45:15.551Z,3.43
2019-03-15T20:47:44.203Z,3.50
2019-03-15T20:50:14.408Z,3.33
2019-03-15T20:52:43.074Z,3.70
2019-03-15T20:55:11.687Z,3.70
2019-03-15T20:57:40.365Z,3.70
2019-03-15T21:00:17.039Z,3.20
2019-03-15T21:02:45.737Z,4.07
2019-03-15T21:05:14.508Z,3.63
2019-03-15T21:07:44.114Z,3.50
2019-03-15T21:10:20.490Z,3.80
2019-03-15T21:12:52.156Z,3.97
2019-03-15T21:15:20.931Z,4.07
2019-03-15T21:17:50.144Z,4.20
2019-03-15T21:20:22.615Z,4.20
2019-03-15T21:22:50.586Z,3.90
2019-03-15T21:25:19.214Z,3.73
2019-03-15T21:27:54.222Z,3.40
2019-03-15T21:30:20.449Z,3.57
2019-03-15T21:32:49.082Z,3.17
2019-03-15T21:35:17.755Z,3.50
2019-03-15T21:37:46.425Z,3.40
2019-03-15T21:40:16.294Z,3.00
2019-03-15T21:42:44.941Z,3.70
2019-03-15T21:45:14.211Z,3.83
2019-03-15T21:47:42.886Z,3.57
2019-03-15T21:50:16.660Z,3.90
2019-03-15T21:52:45.343Z,3.87
2019-03-15T21:55:14.541Z,4.67
2019-03-15T21:57:43.183Z,4.30
2019-03-15T22:00:16.810Z,4.60
2019-03-15T22:02:45.468Z,5.60
2019-03-15T22:05:14.131Z,5.90
2019-03-15T22:07:42.802Z,8.40
2019-03-15T22:10:15.594Z,7.10
2019-03-15T22:12:44.256Z,6.57
2019-03-15T22:15:14.279Z,6.70
2019-03-15T22:17:43.219Z,6.70
2019-03-15T22:20:16.221Z,8.40
2019-03-15T22:22:44.853Z,7.10
2019-03-15T22:25:13.636Z,7.30
2019-03-15T22:27:42.284Z,7.67
2019-03-15T22:30:16.825Z,9.77
2019-03-15T22:32:45.516Z,7.47
2019-03-15T22:35:14.209Z,6.57
2019-03-15T22:37:42.879Z,6.10
2019-03-15T22:40:13.116Z,6.50
2019-03-15T22:42:41.777Z,5.97
2019-03-15T22:45:11.645Z,6.13
2019-03-15T22:47:40.317Z,5.77
2019-03-15T22:50:10.884Z,5.33
2019-03-15T22:52:39.618Z,4.47
2019-03-15T22:55:10.132Z,5.03
2019-03-15T22:57:38.879Z,4.77
2019-03-15T23:00:18.328Z,5.60
2019-03-15T23:02:47.076Z,4.80
2019-03-15T23:05:15.702Z,4.83
2019-03-15T23:07:44.435Z,5.17
2019-03-15T23:10:13.581Z,5.70
2019-03-15T23:12:42.241Z,5.40
2019-03-15T23:15:12.305Z,5.27
2019-03-15T23:17:40.971Z,5.73
2019-03-15T23:20:13.867Z,5.57
2019-03-15T23:22:42.604Z,6.43
2019-03-15T23:25:11.473Z,5.70
2019-03-15T23:27:40.134Z,5.43
2019-03-15T23:30:11.836Z,5.70
2019-03-15T23:32:40.496Z,5.00
2019-03-15T23:35:09.271Z,5.30
2019-03-15T23:37:37.945Z,5.77
2019-03-15T23:40:09.230Z,6.10
2019-03-15T23:42:37.898Z,6.83
2019-03-15T23:45:11.556Z,6.53
2019-03-15T23:47:40.232Z,7.80
2019-03-15T23:50:13.806Z,7.47
2019-03-15T23:52:42.580Z,8.53
2019-03-15T23:55:11.268Z,9.00
2019-03-15T23:57:40.270Z,8.90
